Terminal Aerodrome Forecast
Issued by NWS

Home | Current Version | Previous Version | Text Only | Print | Product List | Glossary On
Versions: 1 2 3 4 5 6 7 8 9 10 11 12
000
FTUS43 KFGF 260500
TAFTVF
TAF
KTVF 260520Z 2606/2706 VRB04KT P6SM FEW250
     FM261200 12007KT P6SM SCT250
     FM261500 14012G17KT P6SM BKN250
     FM261800 14015G24KT P6SM BKN120
     FM262300 14012KT P6SM SCT250
      AMD LTD TO CLD VIS AND WIND=

USA.gov is the U.S. government's official web portal to all federal, state and local government web resources and services.